createdAt,value
2023-04-06T00:01:59.948Z,55.92
2023-04-06T00:05:02.539Z,55.94
2023-04-06T00:08:05.446Z,56.16
2023-04-06T00:11:08.000Z,55.87
2023-04-06T00:14:11.868Z,56.54
2023-04-06T00:17:14.422Z,56.53
2023-04-06T00:20:17.319Z,56.75
2023-04-06T00:23:19.865Z,56.91
2023-04-06T00:26:22.481Z,56.97
2023-04-06T00:29:26.499Z,56.86
2023-04-06T00:32:29.131Z,56.56
2023-04-06T00:35:31.705Z,57.28
2023-04-06T00:38:34.264Z,57.05
2023-04-06T00:41:36.860Z,56.21
2023-04-06T00:44:40.910Z,56.53
2023-04-06T00:47:43.644Z,56.55
2023-04-06T00:50:46.161Z,55.95
2023-04-06T00:53:48.702Z,56.40
2023-04-06T00:56:51.365Z,57.02
2023-04-06T00:59:55.472Z,57.19
2023-04-06T01:02:58.206Z,57.31
2023-04-06T01:06:00.814Z,57.77
2023-04-06T01:09:03.353Z,57.75
2023-04-06T01:12:06.076Z,58.52
2023-04-06T01:15:11.355Z,59.08
2023-04-06T01:18:14.128Z,58.96
2023-04-06T01:21:17.501Z,58.92
2023-04-06T01:24:21.473Z,58.25
2023-04-06T01:27:24.061Z,59.13
2023-04-06T01:30:27.430Z,59.66
2023-04-06T01:33:29.992Z,60.17
2023-04-06T01:36:32.634Z,60.00
2023-04-06T01:39:36.789Z,60.11
2023-04-06T01:42:39.332Z,60.52
2023-04-06T01:45:41.869Z,61.13
2023-04-06T01:48:44.543Z,61.18
2023-04-06T01:51:47.076Z,61.70
2023-04-06T01:54:51.086Z,61.64
2023-04-06T01:57:53.590Z,62.08
2023-04-06T02:00:56.362Z,62.26
2023-04-06T02:03:58.937Z,62.09
2023-04-06T02:07:01.463Z,62.52
2023-04-06T02:10:06.252Z,62.52
2023-04-06T02:13:08.888Z,62.55
2023-04-06T02:16:11.467Z,62.36
2023-04-06T02:19:14.128Z,62.16
2023-04-06T02:22:16.962Z,62.21
2023-04-06T02:25:21.091Z,61.76
2023-04-06T02:28:23.637Z,62.02
2023-04-06T02:31:26.229Z,62.18
2023-04-06T02:34:28.756Z,62.28
2023-04-06T02:37:31.364Z,62.59
2023-04-06T02:40:35.338Z,62.59
2023-04-06T02:43:37.874Z,62.44
2023-04-06T02:46:40.405Z,62.56
2023-04-06T02:49:42.978Z,62.70
2023-04-06T02:52:45.570Z,62.64
2023-04-06T02:55:49.452Z,62.84
2023-04-06T02:58:51.891Z,62.42
2023-04-06T03:01:54.445Z,62.91
2023-04-06T03:04:57.064Z,63.70
2023-04-06T03:07:59.671Z,64.37
2023-04-06T03:11:03.561Z,64.63
2023-04-06T03:14:05.919Z,64.54
2023-04-06T03:17:08.447Z,64.56
2023-04-06T03:20:11.785Z,64.18
2023-04-06T03:23:14.377Z,63.90
2023-04-06T03:26:18.296Z,63.67
2023-04-06T03:29:20.762Z,64.12
2023-04-06T03:32:26.269Z,64.08
2023-04-06T03:35:31.741Z,64.21
2023-04-06T03:38:43.097Z,63.56
2023-04-06T03:42:10.799Z,62.90
2023-04-06T03:45:25.654Z,62.38
2023-04-06T03:53:11.717Z,63.11
2023-04-06T03:56:26.082Z,63.43
2023-04-06T03:59:58.011Z,64.21
2023-04-06T04:03:51.907Z,64.00
2023-04-06T04:07:04.354Z,64.14
2023-04-06T04:10:07.649Z,64.19
2023-04-06T04:13:10.273Z,63.43
2023-04-06T04:16:14.403Z,63.49
2023-04-06T04:19:17.131Z,63.50
2023-04-06T04:22:19.644Z,63.56
2023-04-06T04:25:22.243Z,63.61
2023-04-06T04:28:24.875Z,63.44
2023-04-06T04:31:28.879Z,63.49
2023-04-06T04:34:32.176Z,63.23
2023-04-06T04:37:35.729Z,63.18
2023-04-06T04:40:38.234Z,63.17
2023-04-06T04:43:40.919Z,63.30
2023-04-06T04:46:44.715Z,63.75
2023-04-06T04:49:47.283Z,63.98
2023-04-06T04:52:49.993Z,64.43
2023-04-06T04:55:52.747Z,64.07
2023-04-06T04:58:55.462Z,64.11
2023-04-06T05:01:59.488Z,63.97
2023-04-06T05:05:02.107Z,63.90
2023-04-06T05:08:05.116Z,63.70
2023-04-06T05:11:07.662Z,63.43
2023-04-06T05:14:10.397Z,62.60
2023-04-06T05:17:14.534Z,62.63
2023-04-06T05:20:17.369Z,62.08
2023-04-06T05:23:20.120Z,61.43
2023-04-06T05:26:22.616Z,61.67
2023-04-06T05:29:25.500Z,61.74
2023-04-06T05:32:29.463Z,61.32
2023-04-06T05:35:32.334Z,61.78
2023-04-06T05:38:35.317Z,61.61
2023-04-06T05:41:37.916Z,60.86
2023-04-06T05:44:40.548Z,60.51
2023-04-06T05:47:45.067Z,60.21
2023-04-06T05:50:50.550Z,60.37
2023-04-06T05:53:53.072Z,59.95
2023-04-06T05:56:55.707Z,59.91
2023-04-06T05:59:58.222Z,59.30
2023-04-06T06:03:05.291Z,59.49
2023-04-06T06:06:07.901Z,59.00
2023-04-06T06:09:10.594Z,58.60
2023-04-06T06:12:14.669Z,58.14
2023-04-06T06:15:17.498Z,58.03
2023-04-06T06:18:21.704Z,57.09
2023-04-06T06:21:24.257Z,57.50
2023-04-06T06:24:26.755Z,57.15
2023-04-06T06:27:43.062Z,56.45
2023-04-06T06:30:45.786Z,56.66
2023-04-06T06:33:51.229Z,56.36
2023-04-06T06:36:56.147Z,56.20
2023-04-06T06:39:58.728Z,56.04
2023-04-06T06:43:01.286Z,55.83
2023-04-06T06:46:03.930Z,54.62
2023-04-06T06:49:07.845Z,54.45
2023-04-06T06:52:10.416Z,53.53
2023-04-06T06:55:13.060Z,53.36
2023-04-06T06:58:15.598Z,53.05
2023-04-06T07:01:18.189Z,52.38
2023-04-06T07:04:22.360Z,52.22
2023-04-06T07:07:24.913Z,51.62
2023-04-06T07:10:28.679Z,51.24
2023-04-06T07:13:31.109Z,51.08
2023-04-06T07:16:33.630Z,50.62
2023-04-06T07:19:37.718Z,50.43
2023-04-06T07:22:40.351Z,49.91
2023-04-06T07:25:43.127Z,49.82
2023-04-06T07:28:46.305Z,49.80
2023-04-06T07:31:50.005Z,48.63
2023-04-06T07:34:54.067Z,48.90
2023-04-06T07:37:56.572Z,48.45
2023-04-06T07:40:59.436Z,47.79
2023-04-06T07:44:02.046Z,47.33
2023-04-06T07:47:04.726Z,47.53
2023-04-06T07:50:09.543Z,46.64
2023-04-06T07:53:12.165Z,46.50
2023-04-06T07:56:16.417Z,46.47
2023-04-06T07:59:19.030Z,45.38
2023-04-06T08:02:21.843Z,45.25
2023-04-06T08:05:25.975Z,44.70
2023-04-06T08:08:28.596Z,44.76
2023-04-06T08:11:31.170Z,44.85
2023-04-06T08:14:33.740Z,44.42
2023-04-06T08:17:36.476Z,43.31
2023-04-06T08:20:40.865Z,43.06
2023-04-06T08:23:43.367Z,43.06
2023-04-06T08:26:46.132Z,43.04
2023-04-06T08:29:51.123Z,42.44
2023-04-06T08:32:53.766Z,42.36
2023-04-06T08:35:57.773Z,41.93
2023-04-06T08:39:01.513Z,41.69
2023-04-06T08:42:04.776Z,41.79
2023-04-06T08:45:08.468Z,41.51
2023-04-06T08:48:10.919Z,41.15
2023-04-06T08:51:14.865Z,40.59
2023-04-06T08:54:17.533Z,39.82
2023-04-06T08:57:20.968Z,39.54
2023-04-06T09:00:24.036Z,40.11
2023-04-06T09:03:28.490Z,39.66
2023-04-06T09:06:32.949Z,39.22
2023-04-06T09:09:35.616Z,37.99
2023-04-06T09:12:38.216Z,37.99
2023-04-06T09:15:42.177Z,35.91
2023-04-06T09:18:44.909Z,35.40
2023-04-06T09:21:49.158Z,35.08
2023-04-06T09:24:53.061Z,34.54
2023-04-06T09:28:02.349Z,34.40
2023-04-06T09:31:05.045Z,33.65
2023-04-06T09:34:07.891Z,33.34
2023-04-06T09:37:15.960Z,32.92
2023-04-06T09:40:20.004Z,32.06
2023-04-06T09:43:27.082Z,30.20
2023-04-06T09:46:29.772Z,29.98
2023-04-06T09:49:33.077Z,29.01
2023-04-06T09:52:40.390Z,28.75
2023-04-06T09:55:45.283Z,29.25
2023-04-06T09:58:48.866Z,28.59
2023-04-06T10:01:51.355Z,28.98
2023-04-06T10:04:59.118Z,28.11
2023-04-06T10:08:06.739Z,27.69
2023-04-06T10:11:09.976Z,27.58
2023-04-06T10:14:12.861Z,27.93
2023-04-06T10:17:15.561Z,28.05
2023-04-06T10:20:23.089Z,27.55
2023-04-06T10:23:33.093Z,26.79
2023-04-06T10:26:35.664Z,26.28
2023-04-06T10:29:46.213Z,27.17
2023-04-06T10:32:48.713Z,26.12
2023-04-06T10:35:51.349Z,26.86
2023-04-06T10:38:59.701Z,25.62
2023-04-06T10:42:08.770Z,25.59
2023-04-06T10:45:21.542Z,25.54
2023-04-06T10:48:24.873Z,25.26
2023-04-06T10:51:29.448Z,25.26
2023-04-06T10:54:33.790Z,25.17
2023-04-06T10:57:37.470Z,25.74
2023-04-06T11:00:50.556Z,25.44
2023-04-06T11:03:58.896Z,25.93
2023-04-06T11:07:01.517Z,24.65
2023-04-06T11:10:15.998Z,24.96
2023-04-06T11:13:20.348Z,24.63
2023-04-06T11:16:23.902Z,24.91
2023-04-06T11:19:26.376Z,24.25
2023-04-06T11:22:28.995Z,23.61
2023-04-06T11:25:33.668Z,23.79
2023-04-06T11:28:36.884Z,23.71
2023-04-06T11:31:43.311Z,23.35
2023-04-06T11:34:49.023Z,23.22
2023-04-06T11:37:52.144Z,23.07
2023-04-06T11:40:56.449Z,22.82
2023-04-06T11:43:59.212Z,22.26
2023-04-06T11:47:02.897Z,22.66
2023-04-06T11:50:09.533Z,21.60
2023-04-06T11:53:12.106Z,21.23
2023-04-06T11:56:26.465Z,21.27
2023-04-06T11:59:29.376Z,20.91
2023-04-06T12:02:33.254Z,21.09
2023-04-06T12:05:36.172Z,20.83
2023-04-06T12:08:38.935Z,20.58
2023-04-06T12:11:43.001Z,21.67
2023-04-06T12:14:45.670Z,20.97
2023-04-06T12:17:48.370Z,20.48
2023-04-06T12:20:51.102Z,20.40
2023-04-06T12:23:53.633Z,19.07
2023-04-06T12:27:08.772Z,19.18
2023-04-06T12:30:13.811Z,19.09
2023-04-06T12:33:16.394Z,18.79
2023-04-06T12:36:20.805Z,18.78
2023-04-06T12:39:23.685Z,19.37
2023-04-06T12:42:27.549Z,19.12
2023-04-06T12:45:30.262Z,18.84
2023-04-06T12:48:33.213Z,18.19
2023-04-06T12:51:35.774Z,17.59
2023-04-06T12:54:38.345Z,17.89
2023-04-06T12:57:42.637Z,14.03
2023-04-06T13:00:46.683Z,11.59
2023-04-06T13:03:49.410Z,9.49
2023-04-06T13:06:51.944Z,9.22
2023-04-06T13:09:54.901Z,9.16
2023-04-06T13:12:58.776Z,7.87
2023-04-06T13:16:03.103Z,7.97
2023-04-06T13:19:05.805Z,9.81
2023-04-06T13:22:11.320Z,10.56
2023-04-06T13:25:13.947Z,11.01
2023-04-06T13:28:17.794Z,11.18
2023-04-06T13:31:20.691Z,11.57
2023-04-06T13:34:23.262Z,11.68
2023-04-06T13:37:26.134Z,9.59
2023-04-06T13:40:28.672Z,10.57
2023-04-06T13:43:32.583Z,11.33
2023-04-06T13:46:35.086Z,10.56
2023-04-06T13:49:37.914Z,11.95
2023-04-06T13:52:40.543Z,12.57
2023-04-06T13:55:43.143Z,11.47
2023-04-06T13:58:47.163Z,12.36
2023-04-06T14:01:50.263Z,13.55
2023-04-06T14:04:52.969Z,13.86
2023-04-06T14:07:56.306Z,13.74
2023-04-06T14:10:58.745Z,13.97
2023-04-06T14:14:02.933Z,14.38
2023-04-06T14:17:05.769Z,14.34
2023-04-06T14:20:14.794Z,14.97
2023-04-06T14:23:17.421Z,14.70
2023-04-06T14:26:20.583Z,13.71
2023-04-06T14:29:24.448Z,11.57
2023-04-06T14:32:27.598Z,12.59
2023-04-06T14:35:31.643Z,13.35
2023-04-06T14:38:34.581Z,12.58
2023-04-06T14:41:37.211Z,10.82
2023-04-06T14:44:43.971Z,9.37
2023-04-06T14:47:46.515Z,9.58
2023-04-06T14:50:54.266Z,10.06
2023-04-06T14:53:56.957Z,10.46
2023-04-06T14:56:59.549Z,10.52
2023-04-06T15:00:04.437Z,10.49
2023-04-06T15:03:07.166Z,10.88
2023-04-06T15:06:16.165Z,10.18
2023-04-06T15:09:18.792Z,9.96
2023-04-06T15:12:21.457Z,11.44
2023-04-06T15:15:25.656Z,11.63
2023-04-06T15:18:28.402Z,12.62
2023-04-06T15:21:31.258Z,13.84
2023-04-06T15:24:33.998Z,14.67
2023-04-06T15:27:36.582Z,15.00
2023-04-06T15:30:40.757Z,14.71
2023-04-06T15:33:44.730Z,15.60
2023-04-06T15:36:47.883Z,15.23
2023-04-06T15:39:50.883Z,15.44
2023-04-06T15:42:53.425Z,15.43
2023-04-06T15:45:57.305Z,15.19
2023-04-06T15:49:00.114Z,14.67
2023-04-06T15:52:02.682Z,15.01
2023-04-06T15:55:07.083Z,15.71
2023-04-06T15:58:09.807Z,16.31
2023-04-06T16:01:15.284Z,16.42
2023-04-06T16:04:17.954Z,16.92
2023-04-06T16:07:20.930Z,17.36
2023-04-06T16:10:23.467Z,18.03
2023-04-06T16:13:26.263Z,17.61
2023-04-06T16:16:30.534Z,17.75
2023-04-06T16:19:33.199Z,18.48
2023-04-06T16:22:36.740Z,19.54
2023-04-06T16:25:39.845Z,19.43
2023-04-06T16:28:42.510Z,20.51
2023-04-06T16:31:47.942Z,20.38
2023-04-06T16:34:50.990Z,20.96
2023-04-06T16:37:53.582Z,20.82
2023-04-06T16:41:01.234Z,21.54
2023-04-06T16:44:03.949Z,22.12
2023-04-06T16:47:08.476Z,21.97
2023-04-06T16:50:12.081Z,22.90
2023-04-06T16:53:14.782Z,23.18
2023-04-06T16:56:17.485Z,23.57
2023-04-06T16:59:20.487Z,24.19
2023-04-06T17:02:24.602Z,24.35
2023-04-06T17:05:27.675Z,25.69
2023-04-06T17:08:30.387Z,27.14
2023-04-06T17:11:43.746Z,27.79
2023-04-06T17:14:49.060Z,27.38
2023-04-06T17:17:54.077Z,28.36
2023-04-06T17:20:56.721Z,28.30
2023-04-06T17:23:59.442Z,27.74
2023-04-06T17:27:02.736Z,27.22
2023-04-06T17:30:06.451Z,28.34
2023-04-06T17:33:10.561Z,27.37
2023-04-06T17:36:13.030Z,27.24
2023-04-06T17:39:15.584Z,26.51
2023-04-06T17:42:18.836Z,26.65
2023-04-06T17:45:21.488Z,26.18
2023-04-06T17:48:26.669Z,26.46
2023-04-06T17:51:29.300Z,26.00
2023-04-06T17:54:31.950Z,26.12
2023-04-06T17:57:34.585Z,26.50
2023-04-06T18:00:37.250Z,26.44
2023-04-06T18:03:41.432Z,26.70
2023-04-06T18:06:44.095Z,27.01
2023-04-06T18:09:46.696Z,27.63
2023-04-06T18:12:49.482Z,28.38
2023-04-06T18:15:54.207Z,28.23
2023-04-06T18:18:58.351Z,28.31
2023-04-06T18:22:01.544Z,28.39
2023-04-06T18:25:04.091Z,28.42
2023-04-06T18:28:06.947Z,29.12
2023-04-06T18:31:09.547Z,29.14
2023-04-06T18:34:13.608Z,29.12
2023-04-06T18:37:16.330Z,29.69
2023-04-06T18:40:34.732Z,29.75
2023-04-06T18:43:37.966Z,30.22
2023-04-06T18:46:40.849Z,29.60
2023-04-06T18:49:44.781Z,30.00
2023-04-06T18:52:47.407Z,28.92
2023-04-06T18:55:51.469Z,28.52
2023-04-06T18:58:54.140Z,28.80
2023-04-06T19:01:56.916Z,29.30
2023-04-06T19:05:03.416Z,28.98
2023-04-06T19:08:06.181Z,29.17
2023-04-06T19:11:09.003Z,28.94
2023-04-06T19:14:11.609Z,29.39
2023-04-06T19:17:14.142Z,29.50
2023-04-06T19:20:18.573Z,29.90
2023-04-06T19:23:21.457Z,30.18
2023-04-06T19:26:27.017Z,29.87
2023-04-06T19:29:29.704Z,30.00
2023-04-06T19:32:32.389Z,30.24
2023-04-06T19:35:36.555Z,30.52
2023-04-06T19:38:39.358Z,30.40
2023-04-06T19:41:41.853Z,31.15
2023-04-06T19:44:44.427Z,31.16
2023-04-06T19:47:47.386Z,31.14
2023-04-06T19:50:53.548Z,30.86
2023-04-06T19:53:56.136Z,31.37
2023-04-06T19:56:58.696Z,32.25
2023-04-06T20:00:01.279Z,32.69
2023-04-06T20:03:04.052Z,32.67
2023-04-06T20:06:08.217Z,33.36
2023-04-06T20:09:11.942Z,33.16
2023-04-06T20:12:14.470Z,33.59
2023-04-06T20:15:17.316Z,33.91
2023-04-06T20:18:19.948Z,34.88
2023-04-06T20:21:24.123Z,35.57
2023-04-06T20:24:26.779Z,35.96
2023-04-06T20:27:29.300Z,36.45
2023-04-06T20:30:32.232Z,36.79
2023-04-06T20:33:35.353Z,37.18
2023-04-06T20:36:40.050Z,37.24
2023-04-06T20:39:42.876Z,37.45
2023-04-06T20:42:46.177Z,38.39
2023-04-06T20:45:49.522Z,39.06
2023-04-06T20:48:53.430Z,39.68
2023-04-06T20:51:57.454Z,40.70
2023-04-06T20:55:01.484Z,40.52
2023-04-06T20:58:04.035Z,41.08
2023-04-06T21:01:12.787Z,41.33
2023-04-06T21:04:15.824Z,41.57
2023-04-06T21:07:20.064Z,42.41
2023-04-06T21:10:23.672Z,42.10
2023-04-06T21:13:26.139Z,42.33
2023-04-06T21:16:28.775Z,42.60
2023-04-06T21:19:31.279Z,43.52
2023-04-06T21:22:35.538Z,45.26
2023-04-06T21:25:38.456Z,46.35
2023-04-06T21:28:41.009Z,47.77
2023-04-06T21:31:43.600Z,48.25
2023-04-06T21:34:46.621Z,50.36
2023-04-06T21:37:50.612Z,50.67
2023-04-06T21:40:56.625Z,51.35
2023-04-06T21:43:59.422Z,52.86
2023-04-06T21:47:02.077Z,53.64
2023-04-06T21:50:05.328Z,56.11
2023-04-06T21:53:09.321Z,57.51
2023-04-06T21:56:11.924Z,59.85
2023-04-06T21:59:15.741Z,61.12
2023-04-06T22:02:18.440Z,63.15
2023-04-06T22:05:21.081Z,64.13
2023-04-06T22:08:33.384Z,65.02
2023-04-06T22:11:36.681Z,66.02
2023-04-06T22:14:39.141Z,67.91
2023-04-06T22:17:41.876Z,67.11
2023-04-06T22:20:44.645Z,67.54
2023-04-06T22:23:48.685Z,68.37
2023-04-06T22:26:51.227Z,68.47
2023-04-06T22:29:53.915Z,69.83
2023-04-06T22:32:56.504Z,69.88
2023-04-06T22:35:59.073Z,69.62
2023-04-06T22:39:03.053Z,70.82
2023-04-06T22:42:06.384Z,70.64
2023-04-06T22:45:09.717Z,71.23
2023-04-06T22:48:12.240Z,70.75
2023-04-06T22:51:14.904Z,70.08
2023-04-06T22:54:19.194Z,69.86
2023-04-06T22:57:22.550Z,70.61
2023-04-06T23:00:25.397Z,71.03
2023-04-06T23:03:28.154Z,71.46
2023-04-06T23:06:31.286Z,70.63
2023-04-06T23:09:35.100Z,71.35
2023-04-06T23:12:37.644Z,71.72
2023-04-06T23:15:40.188Z,71.33
2023-04-06T23:18:42.748Z,70.54
2023-04-06T23:21:45.302Z,70.87
2023-04-06T23:24:50.077Z,71.05
2023-04-06T23:27:53.065Z,70.82
2023-04-06T23:30:55.595Z,70.85
2023-04-06T23:33:58.099Z,71.37
2023-04-06T23:37:02.865Z,71.35
2023-04-06T23:40:08.659Z,72.05
2023-04-06T23:43:11.262Z,72.47
2023-04-06T23:46:16.874Z,73.62
2023-04-06T23:49:19.498Z,72.50
2023-04-06T23:52:22.132Z,72.56
2023-04-06T23:55:26.254Z,72.24
2023-04-06T23:58:28.916Z,72.70
